Time;durP1;ratioP1;P1;durP2;ratioP2;P2;SDS_P1;SDS_P2;PMS_P1;PMS_P2;Temp;Humidity;BMP_temperature;BMP_pressure;BME280_temperature;BME280_humidity;BME280_pressure;Samples;Min_cycle;Max_cycle;Signal;HPM_P1;HPM_P2
2024/02/06 00:01:48;;;;;;;7.65;2.80;;;;;;;-0.82;64.03;97102.69;5052158;28;20465;-68
2024/02/06 00:04:15;;;;;;;8.15;3.00;;;;;;;-0.81;63.71;97106.16;5052042;28;20029;-69
2024/02/06 00:06:40;;;;;;;7.97;2.60;;;;;;;-0.86;64.03;97098.63;5051652;28;20477;-70
2024/02/06 00:09:06;;;;;;;6.28;2.90;;;;;;;-0.78;63.99;97111.16;5052355;28;20069;-70
2024/02/06 00:11:31;;;;;;;6.85;2.30;;;;;;;-0.82;63.92;97107.94;5052002;28;20048;-70
2024/02/06 00:13:57;;;;;;;10.30;2.78;;;;;;;-0.79;63.58;97115.56;5052206;28;20037;-70
2024/02/06 00:16:22;;;;;;;6.18;2.65;;;;;;;-0.78;63.97;97119.06;5051816;28;20104;-71
2024/02/06 00:18:48;;;;;;;10.65;2.85;;;;;;;-0.77;63.91;97120.72;5052175;28;20036;-68
2024/02/06 00:21:13;;;;;;;5.88;2.60;;;;;;;-1.17;63.50;97056.38;5051652;28;20029;-71
2024/02/06 00:23:39;;;;;;;6.18;2.65;;;;;;;-0.80;63.51;97124.41;5051425;28;20025;-69
2024/02/06 00:26:04;;;;;;;9.38;2.88;;;;;;;-0.85;63.67;97120.47;5052166;28;20101;-70
2024/02/06 00:28:30;;;;;;;5.80;2.53;;;;;;;-0.88;63.60;97126.81;5052038;28;20036;-70
2024/02/06 00:30:56;;;;;;;7.55;2.80;;;;;;;-0.85;63.54;97128.34;5050711;28;20158;-69
2024/02/06 00:33:21;;;;;;;5.78;2.47;;;;;;;-0.86;63.76;97132.78;5051942;28;20096;-68
2024/02/06 00:35:47;;;;;;;9.27;2.60;;;;;;;-0.85;63.44;97136.22;5051142;28;20507;-66
2024/02/06 00:38:12;;;;;;;7.32;3.05;;;;;;;-1.10;63.31;97096.09;5052001;28;20036;-69
2024/02/06 00:40:38;;;;;;;8.02;2.95;;;;;;;-0.88;63.85;97139.94;5051566;28;20066;-69
2024/02/06 00:43:05;;;;;;;5.20;2.22;;;;;;;-0.83;63.57;97144.84;5051510;28;20037;-69
2024/02/06 00:45:31;;;;;;;6.78;2.65;;;;;;;-0.84;64.08;97141.38;5051786;28;20371;-69
2024/02/06 00:47:56;;;;;;;6.25;2.60;;;;;;;-0.87;63.46;97139.00;5051625;28;20045;-67
2024/02/06 00:50:22;;;;;;;5.88;2.20;;;;;;;-0.84;63.79;97151.88;5052117;28;20051;-71
2024/02/06 00:52:48;;;;;;;7.45;2.65;;;;;;;-0.89;63.98;97141.72;5051801;28;20448;-64
2024/02/06 00:55:15;;;;;;;5.50;2.70;;;;;;;-0.90;64.20;97153.19;5051320;27;20029;-68
2024/02/06 00:57:40;;;;;;;6.72;2.80;;;;;;;-0.87;63.70;97155.56;5051334;28;20029;-68
2024/02/06 01:00:07;;;;;;;10.70;2.97;;;;;;;-0.87;64.01;97160.81;5050806;28;20040;-69
2024/02/06 01:02:34;;;;;;;8.35;2.63;;;;;;;-0.89;63.71;97154.84;5050481;28;20037;-71
2024/02/06 01:05:00;;;;;;;8.32;2.90;;;;;;;-1.23;63.70;97104.94;5051035;28;20044;-71
2024/02/06 01:07:26;;;;;;;8.30;2.40;;;;;;;-0.89;63.30;97160.09;5050860;28;20047;-70
2024/02/06 01:09:51;;;;;;;8.00;3.22;;;;;;;-0.79;63.12;97162.88;5051016;28;20025;-70
2024/02/06 01:12:17;;;;;;;6.30;2.38;;;;;;;-0.92;63.65;97164.78;5051767;28;20090;-70
2024/02/06 01:14:43;;;;;;;8.75;2.85;;;;;;;-0.96;63.73;97158.91;5050820;28;20113;-69
2024/02/06 01:17:08;;;;;;;5.88;2.13;;;;;;;-0.89;63.86;97159.28;5051066;28;20157;-70
2024/02/06 01:19:34;;;;;;;8.48;2.35;;;;;;;-0.94;63.58;97167.50;5051532;28;20029;-67
2024/02/06 01:22:00;;;;;;;5.85;2.45;;;;;;;-0.93;63.82;97163.09;5051574;28;20040;-67
2024/02/06 01:24:25;;;;;;;4.55;2.42;;;;;;;-0.95;63.70;97165.03;5049648;28;20029;-69
2024/02/06 01:26:51;;;;;;;6.32;2.70;;;;;;;-0.98;63.52;97159.97;5051048;28;20037;-71
2024/02/06 01:29:16;;;;;;;7.38;2.80;;;;;;;-1.01;63.63;97180.28;5051859;28;20338;-72
2024/02/06 01:31:42;;;;;;;5.55;2.63;;;;;;;-1.03;63.96;97176.94;5050907;28;20406;-71
2024/02/06 01:34:08;;;;;;;7.00;2.60;;;;;;;-1.05;63.55;97168.31;5049430;28;20048;-71
2024/02/06 01:36:34;;;;;;;7.30;2.60;;;;;;;-1.07;64.00;97178.13;5050753;28;20032;-71
2024/02/06 01:39:01;;;;;;;8.05;2.78;;;;;;;-1.02;63.92;97180.41;5051396;28;20364;-71
2024/02/06 01:41:26;;;;;;;6.72;2.65;;;;;;;-1.06;63.69;97178.97;5050750;28;20033;-72
2024/02/06 01:43:52;;;;;;;7.63;2.60;;;;;;;-1.34;63.70;97124.13;5049635;28;20040;-71
2024/02/06 01:46:19;;;;;;;8.20;2.92;;;;;;;-0.91;63.32;97192.72;5050803;28;20060;-70
2024/02/06 01:48:45;;;;;;;5.32;2.58;;;;;;;-1.07;63.84;97183.38;5050104;28;20025;-72
2024/02/06 01:51:11;;;;;;;5.95;2.50;;;;;;;-1.16;63.86;97191.94;5050799;28;20048;-71
2024/02/06 01:53:37;;;;;;;9.55;2.40;;;;;;;-1.25;63.90;97177.72;5051024;28;20035;-71
2024/02/06 01:56:04;;;;;;;7.85;2.58;;;;;;;-1.18;63.60;97197.31;5052293;28;20029;-71
2024/02/06 01:58:29;;;;;;;6.43;2.58;;;;;;;-1.50;63.76;97149.84;5056810;27;20033;-70
2024/02/06 02:00:55;;;;;;;6.57;2.40;;;;;;;-1.21;63.46;97194.06;5061124;28;20036;-71
2024/02/06 02:03:22;;;;;;;8.45;2.22;;;;;;;-1.24;64.01;97197.78;5058321;28;20025;-70
2024/02/06 02:05:48;;;;;;;6.20;2.30;;;;;;;-1.28;63.84;97213.84;5050495;28;20064;-71
2024/02/06 02:08:14;;;;;;;7.85;2.40;;;;;;;-1.30;64.27;97209.56;5049774;28;20061;-71
2024/02/06 02:10:40;;;;;;;5.03;2.30;;;;;;;-1.31;64.37;97207.88;5050413;28;20068;-70
2024/02/06 02:13:06;;;;;;;8.27;2.63;;;;;;;-1.32;64.68;97208.84;5050143;28;20037;-71
2024/02/06 02:15:32;;;;;;;9.05;2.60;;;;;;;-1.59;64.18;97157.44;5049840;28;20066;-71
2024/02/06 02:17:58;;;;;;;4.35;2.13;;;;;;;-1.26;64.23;97219.81;5050209;28;20028;-70
2024/02/06 02:20:23;;;;;;;4.78;2.33;;;;;;;-1.27;64.63;97233.91;5050345;28;20455;-69
2024/02/06 02:22:49;;;;;;;5.03;2.10;;;;;;;-1.33;64.17;97222.06;5050848;28;20064;-69
2024/02/06 02:25:15;;;;;;;6.40;2.33;;;;;;;-1.35;64.40;97227.44;5050302;28;20417;-70
2024/02/06 02:27:42;;;;;;;5.68;2.40;;;;;;;-1.45;64.45;97205.44;5049827;28;20033;-70
2024/02/06 02:30:08;;;;;;;6.95;2.30;;;;;;;-1.67;64.16;97166.84;5050507;28;20044;-69
2024/02/06 02:32:34;;;;;;;5.32;2.25;;;;;;;-1.41;64.48;97224.44;5049901;28;20025;-69
2024/02/06 02:34:59;;;;;;;5.90;2.20;;;;;;;-1.49;64.64;97230.22;5050320;28;20175;-68
2024/02/06 02:37:25;;;;;;;7.50;2.50;;;;;;;-1.48;64.35;97227.50;5050397;28;20060;-67
2024/02/06 02:39:51;;;;;;;7.43;2.17;;;;;;;-1.50;64.19;97223.31;5050428;28;20126;-69
2024/02/06 02:42:17;;;;;;;6.95;2.25;;;;;;;-1.48;64.27;97231.91;5049366;28;20364;-67
2024/02/06 02:44:42;;;;;;;3.75;1.92;;;;;;;-1.43;64.09;97235.06;5049959;28;20033;-69
2024/02/06 02:47:08;;;;;;;3.95;1.98;;;;;;;-1.43;64.41;97235.06;5050392;28;20452;-70
2024/02/06 02:49:34;;;;;;;4.50;2.13;;;;;;;-1.31;63.89;97238.56;5049353;28;20030;-68
2024/02/06 02:51:59;;;;;;;6.32;2.00;;;;;;;-1.25;63.66;97243.34;5049706;28;20082;-66
2024/02/06 02:54:28;;;;;;;6.32;2.65;;;;;;;-1.47;63.79;97204.72;5050066;28;20037;-67
2024/02/06 02:56:57;;;;;;;6.30;2.20;;;;;;;-1.40;64.23;97218.22;5050387;28;20025;-69
2024/02/06 02:59:23;;;;;;;6.97;2.50;;;;;;;-1.37;64.52;97234.59;5048979;27;20471;-68
2024/02/06 03:01:49;;;;;;;6.38;2.80;;;;;;;-1.43;64.69;97221.06;5048995;28;20037;-70
2024/02/06 03:04:14;;;;;;;7.68;2.53;;;;;;;-1.25;64.20;97237.25;5050034;28;20895;-69
2024/02/06 03:06:40;;;;;;;7.53;2.83;;;;;;;-1.54;64.50;97203.50;5049942;28;20112;-68
2024/02/06 03:09:05;;;;;;;7.60;2.75;;;;;;;-1.28;65.01;97246.22;5048976;28;20108;-67
2024/02/06 03:11:31;;;;;;;11.23;3.00;;;;;;;-1.28;64.47;97237.47;5048929;28;20033;-71
2024/02/06 03:13:56;;;;;;;7.97;2.72;;;;;;;-1.30;65.11;97241.06;5048990;28;20124;-70
2024/02/06 03:16:22;;;;;;;6.43;2.33;;;;;;;-1.25;64.63;97251.22;5050293;28;20334;-70
2024/02/06 03:18:48;;;;;;;12.77;2.35;;;;;;;-1.26;65.08;97243.44;5048827;28;20372;-67
2024/02/06 03:21:13;;;;;;;10.90;2.58;;;;;;;-1.20;64.96;97251.72;5049121;28;20474;-69
2024/02/06 03:23:39;;;;;;;5.90;2.53;;;;;;;-1.14;64.26;97258.31;5049006;28;20523;-69
2024/02/06 03:26:04;;;;;;;5.30;2.70;;;;;;;-1.20;64.79;97250.91;5049625;28;20043;-70
2024/02/06 03:28:33;;;;;;;7.60;3.00;;;;;;;-1.25;64.86;97247.75;5048982;28;20108;-68
2024/02/06 03:30:59;;;;;;;6.03;3.10;;;;;;;-1.26;64.96;97252.19;5049048;28;20085;-67
2024/02/06 03:33:24;;;;;;;7.03;3.10;;;;;;;-1.47;65.17;97218.69;5048731;28;20370;-70
2024/02/06 03:35:50;;;;;;;8.95;3.10;;;;;;;-1.20;64.95;97264.84;5049576;28;20041;-68
2024/02/06 03:38:18;;;;;;;5.80;3.42;;;;;;;-1.23;64.79;97245.84;5048947;28;20111;-69
2024/02/06 03:40:44;;;;;;;6.00;3.10;;;;;;;-1.21;64.73;97255.28;5048164;28;20460;-68
2024/02/06 03:43:09;;;;;;;5.70;3.13;;;;;;;-1.34;64.71;97244.00;5049074;28;20085;-70
2024/02/06 03:45:35;;;;;;;10.10;3.58;;;;;;;-1.32;64.86;97256.09;5048340;28;20040;-69
2024/02/06 03:48:00;;;;;;;4.80;3.28;;;;;;;-1.60;65.33;97213.50;5048407;28;20105;-70
2024/02/06 03:50:26;;;;;;;6.38;3.33;;;;;;;-1.45;65.33;97243.03;5048934;28;20068;-71
2024/02/06 03:52:52;;;;;;;8.38;3.63;;;;;;;-1.33;65.13;97251.78;5048480;28;20141;-71
2024/02/06 03:55:17;;;;;;;7.10;3.30;;;;;;;-1.40;65.34;97247.94;5048793;28;20256;-70
2024/02/06 03:57:44;;;;;;;8.18;4.40;;;;;;;-1.36;65.53;97262.50;5047298;28;20033;-71
2024/02/06 04:00:10;;;;;;;9.02;3.75;;;;;;;-1.30;65.21;97263.88;5048354;27;20036;-70
2024/02/06 04:02:35;;;;;;;9.35;3.78;;;;;;;-1.25;65.63;97258.25;5048322;28;20040;-69
2024/02/06 04:05:05;;;;;;;8.02;3.65;;;;;;;-1.25;65.22;97259.09;5048492;28;20044;-67
2024/02/06 04:07:31;;;;;;;9.27;3.78;;;;;;;-1.38;65.15;97226.81;5048100;28;20302;-64
2024/02/06 04:09:57;;;;;;;10.70;3.38;;;;;;;-1.11;65.13;97265.97;5048860;28;20044;-65
2024/02/06 04:12:22;;;;;;;9.45;4.22;;;;;;;-1.09;65.51;97269.31;5047742;28;20132;-69
2024/02/06 04:14:48;;;;;;;8.52;4.13;;;;;;;-1.06;64.78;97266.44;5048299;28;20078;-69
2024/02/06 04:17:14;;;;;;;7.13;3.90;;;;;;;-1.03;64.77;97276.72;5047487;28;20509;-65
2024/02/06 04:19:39;;;;;;;8.50;3.58;;;;;;;-0.99;64.86;97279.97;5048403;28;20426;-70
2024/02/06 04:22:05;;;;;;;6.80;3.65;;;;;;;-0.98;65.22;97276.38;5048515;28;20111;-76
2024/02/06 04:24:31;;;;;;;9.90;4.15;;;;;;;-0.95;64.92;97273.53;5048799;28;20029;-75
2024/02/06 04:26:56;;;;;;;8.00;4.10;;;;;;;-0.94;64.66;97282.25;5048990;28;20033;-74
2024/02/06 04:29:22;;;;;;;6.72;3.75;;;;;;;-0.98;64.84;97280.78;5048044;28;20025;-72
2024/02/06 04:31:48;;;;;;;9.57;3.97;;;;;;;-0.97;64.84;97280.69;5048482;28;20108;-73
2024/02/06 04:34:13;;;;;;;13.05;4.22;;;;;;;-0.98;64.91;97275.53;5048762;28;20032;-73
2024/02/06 04:36:40;;;;;;;13.95;4.60;;;;;;;-1.01;65.28;97274.81;5047849;28;20048;-74
2024/02/06 04:39:08;;;;;;;7.53;4.38;;;;;;;-0.93;65.39;97289.19;5050674;28;20036;-72
2024/02/06 04:41:35;;;;;;;10.73;3.80;;;;;;;-0.91;65.06;97295.16;5051968;28;20033;-69
2024/02/06 04:44:01;;;;;;;10.88;4.00;;;;;;;-0.92;65.14;97296.94;5051664;28;20033;-61
2024/02/06 04:46:26;;;;;;;9.07;4.10;;;;;;;-0.85;65.06;97296.47;5051465;28;20036;-77
2024/02/06 04:48:52;;;;;;;8.40;3.78;;;;;;;-0.89;64.88;97288.81;5050708;28;20405;-75
2024/02/06 04:51:18;;;;;;;10.52;3.90;;;;;;;-0.85;64.67;97301.72;5052169;28;20131;-77
2024/02/06 04:53:43;;;;;;;10.15;4.05;;;;;;;-0.87;65.35;97291.34;5051868;28;20097;-77
2024/02/06 04:56:09;;;;;;;5.57;3.30;;;;;;;-0.90;64.83;97297.66;5051098;28;20036;-74
2024/02/06 04:58:35;;;;;;;7.38;3.47;;;;;;;-0.93;64.76;97299.69;5051752;28;20353;-75
2024/02/06 05:01:01;;;;;;;8.27;3.92;;;;;;;-0.89;65.02;97293.25;5060979;27;20035;-75
2024/02/06 05:03:26;;;;;;;8.27;3.67;;;;;;;-0.95;64.72;97280.59;5066086;28;20025;-76
2024/02/06 05:05:52;;;;;;;8.48;3.83;;;;;;;-0.90;64.68;97294.22;5064509;28;20033;-77
2024/02/06 05:08:17;;;;;;;7.18;3.55;;;;;;;-1.06;64.81;97279.56;5052040;28;20029;-76
2024/02/06 05:10:47;;;;;;;7.97;4.10;;;;;;;-0.99;65.43;97295.72;5051543;28;20029;-73
2024/02/06 05:13:13;;;;;;;7.85;3.83;;;;;;;-0.97;65.18;97298.22;5050414;28;20127;-73
2024/02/06 05:15:38;;;;;;;9.43;4.22;;;;;;;-0.94;65.33;97293.59;5050911;28;20562;-71
2024/02/06 05:18:04;;;;;;;6.57;3.85;;;;;;;-0.95;65.04;97285.84;5050311;28;20060;-64
2024/02/06 05:20:30;;;;;;;7.78;3.60;;;;;;;-0.88;65.04;97290.50;5051656;28;20112;-67
2024/02/06 05:22:55;;;;;;;7.15;3.67;;;;;;;-0.82;65.15;97296.28;5051274;28;20068;-74
2024/02/06 05:25:21;;;;;;;8.68;4.03;;;;;;;-0.83;65.37;97290.16;5050980;28;20032;-74
2024/02/06 05:27:46;;;;;;;7.97;4.00;;;;;;;-0.79;65.70;97296.84;5050813;28;20054;-77
2024/02/06 05:30:13;;;;;;;7.60;4.00;;;;;;;-0.85;65.30;97286.81;5051862;28;20041;-75
2024/02/06 05:32:38;;;;;;;8.57;3.42;;;;;;;-0.76;65.45;97291.38;5049880;28;20028;-75
2024/02/06 05:35:04;;;;;;;8.15;3.58;;;;;;;-0.75;65.26;97303.56;5051017;28;20460;-67
2024/02/06 05:37:31;;;;;;;7.97;3.83;;;;;;;-0.74;65.19;97302.59;5050726;28;20021;-75
2024/02/06 05:39:57;;;;;;;10.35;3.90;;;;;;;-0.72;65.43;97297.25;5051449;28;20120;-73
2024/02/06 05:42:23;;;;;;;10.13;3.78;;;;;;;-0.73;65.81;97301.66;5050852;28;20425;-75
2024/02/06 05:44:49;;;;;;;7.15;3.78;;;;;;;-0.73;65.79;97288.50;5050471;28;20048;-76
2024/02/06 05:47:16;;;;;;;9.77;4.10;;;;;;;-0.76;65.93;97286.13;5050971;28;20027;-76
2024/02/06 05:49:42;;;;;;;5.70;3.70;;;;;;;-0.73;66.44;97290.31;5049256;28;20131;-74
2024/02/06 05:52:08;;;;;;;8.48;4.00;;;;;;;-0.75;66.23;97284.34;5050026;28;20025;-74
2024/02/06 05:54:33;;;;;;;7.32;3.53;;;;;;;-0.80;66.55;97295.19;5050337;28;20082;-75
2024/02/06 05:56:59;;;;;;;6.00;3.38;;;;;;;-0.77;66.63;97289.69;5050401;28;20045;-76
2024/02/06 05:59:27;;;;;;;9.20;3.25;;;;;;;-0.77;66.57;97300.19;5050702;28;20112;-76
2024/02/06 06:01:54;;;;;;;8.48;4.13;;;;;;;-0.75;66.75;97302.72;5049975;28;20021;-76
2024/02/06 06:04:20;;;;;;;7.28;3.03;;;;;;;-0.82;66.33;97302.34;5050074;27;20060;-73
2024/02/06 06:06:46;;;;;;;8.48;3.15;;;;;;;-0.80;66.93;97303.06;5050470;28;20089;-74
2024/02/06 06:09:11;;;;;;;6.90;3.45;;;;;;;-0.80;66.80;97294.38;5050508;28;20448;-75
2024/02/06 06:11:37;;;;;;;7.78;3.00;;;;;;;-0.68;66.59;97297.84;5050832;28;20029;-75
2024/02/06 06:14:03;;;;;;;5.82;3.00;;;;;;;-0.61;66.65;97309.56;5050451;28;20487;-75
2024/02/06 06:16:28;;;;;;;6.82;2.47;;;;;;;-0.53;66.14;97306.38;5049708;28;20051;-72
2024/02/06 06:18:54;;;;;;;6.28;2.70;;;;;;;-0.53;65.30;97307.19;5050781;28;20360;-75
2024/02/06 06:21:19;;;;;;;5.88;2.78;;;;;;;-0.54;65.92;97289.75;5050678;28;20150;-75
2024/02/06 06:23:45;;;;;;;6.68;2.55;;;;;;;-0.54;65.03;97284.50;5050607;28;20039;-74
2024/02/06 06:26:10;;;;;;;6.03;2.45;;;;;;;-0.37;65.04;97306.03;5050836;28;20063;-75
2024/02/06 06:28:36;;;;;;;6.60;2.78;;;;;;;-0.30;65.25;97305.44;5050787;28;20032;-74
2024/02/06 06:31:01;;;;;;;8.80;2.35;;;;;;;-0.36;65.00;97290.16;5050956;28;20048;-74
2024/02/06 06:33:27;;;;;;;8.98;2.60;;;;;;;-0.07;64.84;97321.25;5050773;28;20437;-76
2024/02/06 06:35:52;;;;;;;8.38;3.85;;;;;;;-0.17;64.57;97272.94;5050197;28;20333;-75
2024/02/06 06:38:18;;;;;;;3.78;1.83;;;;;;;0.00;64.25;97274.28;5050520;28;20053;-74
2024/02/06 06:40:43;;;;;;;6.18;1.95;;;;;;;0.28;63.47;97291.31;5049739;28;20033;-74
2024/02/06 06:43:09;;;;;;;4.32;2.28;;;;;;;0.53;63.45;97314.88;5049771;28;20096;-75
2024/02/06 06:45:35;;;;;;;4.13;2.20;;;;;;;0.53;62.94;97314.88;5051542;28;20033;-75
2024/02/06 06:48:01;;;;;;;6.82;2.42;;;;;;;0.43;62.89;97320.84;5051531;28;20076;-75
2024/02/06 06:50:26;;;;;;;3.33;1.63;;;;;;;0.46;63.16;97326.84;5050148;28;20103;-76
2024/02/06 06:52:52;;;;;;;4.40;1.90;;;;;;;0.33;63.37;97313.81;5053842;28;20045;-74
2024/02/06 06:55:19;;;;;;;5.00;1.98;;;;;;;0.43;63.54;97331.38;5074510;27;20041;-64
2024/02/06 06:57:44;;;;;;;6.63;2.33;;;;;;;0.23;63.61;97306.66;5061170;27;20048;-75
2024/02/06 07:00:12;;;;;;;6.13;2.22;;;;;;;0.48;63.84;97327.53;5050312;28;20051;-74
2024/02/06 07:02:41;;;;;;;5.50;1.60;;;;;;;0.33;63.62;97319.91;5051223;28;20036;-75
2024/02/06 07:05:11;;;;;;;4.10;1.75;;;;;;;0.31;63.71;97327.09;5050419;28;20126;-77
2024/02/06 07:07:37;;;;;;;2.90;1.60;;;;;;;0.28;63.63;97327.34;5055195;27;20102;-75
2024/02/06 07:10:04;;;;;;;3.22;1.60;;;;;;;0.28;64.31;97335.25;5049567;28;20072;-77
2024/02/06 07:12:32;;;;;;;5.45;1.70;;;;;;;0.25;64.38;97335.50;5094753;27;20111;-75
2024/02/06 07:14:58;;;;;;;5.53;1.70;;;;;;;0.35;64.22;97328.53;5134360;27;20031;-75
2024/02/06 07:17:24;;;;;;;5.60;1.80;;;;;;;0.35;63.95;97328.53;5133085;27;20023;-74
2024/02/06 07:19:49;;;;;;;3.65;1.60;;;;;;;0.47;64.39;97337.25;5134128;27;20095;-73
2024/02/06 07:22:15;;;;;;;3.75;1.58;;;;;;;0.54;64.50;97327.06;5134002;27;20048;-74
2024/02/06 07:24:40;;;;;;;5.93;2.13;;;;;;;0.56;64.44;97325.16;5134096;27;20031;-70
2024/02/06 07:27:06;;;;;;;6.95;2.03;;;;;;;0.72;63.78;97332.66;5112846;27;20025;-74
2024/02/06 07:29:31;;;;;;;5.68;1.80;;;;;;;0.76;63.34;97335.91;5049848;28;20527;-72
2024/02/06 07:31:57;;;;;;;4.32;1.50;;;;;;;0.77;63.74;97327.84;5055341;28;20035;-70
2024/02/06 07:34:23;;;;;;;3.60;1.70;;;;;;;0.65;63.84;97287.53;5055684;28;20037;-74
2024/02/06 07:36:48;;;;;;;5.88;1.77;;;;;;;0.98;63.82;97327.94;5045278;28;20100;-65
2024/02/06 07:39:14;;;;;;;4.70;1.90;;;;;;;1.05;63.45;97335.31;5044129;28;20170;-63
2024/02/06 07:41:41;;;;;;;4.90;1.83;;;;;;;1.02;63.01;97327.66;5032262;28;20029;-65
2024/02/06 07:44:06;;;;;;;5.45;1.73;;;;;;;1.04;62.91;97338.91;5031714;28;20087;-66
2024/02/06 07:46:32;;;;;;;5.30;1.85;;;;;;;0.98;63.06;97335.84;5048038;28;20380;-67
2024/02/06 07:48:57;;;;;;;4.55;1.52;;;;;;;0.98;63.12;97335.84;5048410;27;20119;-67
2024/02/06 07:51:24;;;;;;;2.97;1.55;;;;;;;1.07;62.66;97347.41;5045096;28;20144;-69
2024/02/06 07:53:50;;;;;;;5.88;1.77;;;;;;;1.05;62.86;97345.88;5028423;28;20041;-67
2024/02/06 07:56:17;;;;;;;6.13;1.85;;;;;;;1.05;62.39;97353.78;5045951;28;20405;-66
2024/02/06 07:58:43;;;;;;;3.90;1.95;;;;;;;0.99;62.63;97332.22;5047803;28;20105;-66
2024/02/06 08:01:11;;;;;;;4.13;1.98;;;;;;;0.82;62.14;97309.88;5048311;28;20049;-65
2024/02/06 08:03:37;;;;;;;8.90;2.28;;;;;;;1.12;61.98;97368.97;5043049;28;20021;-68
2024/02/06 08:06:03;;;;;;;4.65;2.08;;;;;;;1.13;61.62;97360.09;5033271;28;20444;-67
2024/02/06 08:08:29;;;;;;;5.40;2.35;;;;;;;1.11;61.89;97354.13;5030194;28;20049;-65
2024/02/06 08:10:55;;;;;;;4.80;1.90;;;;;;;1.03;61.70;97364.41;5033201;28;20108;-65
2024/02/06 08:13:21;;;;;;;5.50;1.90;;;;;;;1.07;61.14;97370.28;5050346;28;20029;-63
2024/02/06 08:15:47;;;;;;;6.28;2.20;;;;;;;1.05;61.08;97374.84;5051200;28;20043;-68
2024/02/06 08:18:13;;;;;;;5.53;2.38;;;;;;;0.98;61.15;97385.91;5050975;28;20075;-70
2024/02/06 08:20:38;;;;;;;5.00;2.10;;;;;;;0.96;62.11;97376.44;5051558;28;20025;-69
2024/02/06 08:23:04;;;;;;;5.20;2.10;;;;;;;0.79;60.93;97336.47;5037888;28;20037;-65
2024/02/06 08:25:31;;;;;;;7.53;2.42;;;;;;;0.79;61.77;97367.25;5046894;28;20037;-65
2024/02/06 08:27:56;;;;;;;6.03;2.10;;;;;;;0.66;62.04;97370.84;5049611;28;20493;-70
2024/02/06 08:30:22;;;;;;;4.85;2.33;;;;;;;0.75;62.51;97376.38;5051000;28;20029;-70
2024/02/06 08:32:47;;;;;;;7.78;2.25;;;;;;;0.77;62.07;97390.25;5047416;28;20029;-64
2024/02/06 08:35:13;;;;;;;6.35;2.97;;;;;;;0.76;62.36;97392.03;5043128;28;20418;-67
2024/02/06 08:37:38;;;;;;;6.57;2.60;;;;;;;0.78;62.37;97400.63;5050903;28;20029;-66
2024/02/06 08:40:07;;;;;;;6.13;2.72;;;;;;;0.83;62.68;97389.75;5041967;28;20034;-67
2024/02/06 08:42:36;;;;;;;7.60;2.75;;;;;;;0.96;62.51;97395.69;5094328;27;20031;-65
2024/02/06 08:45:03;;;;;;;5.55;2.35;;;;;;;1.11;61.98;97393.66;5135389;27;20035;-69
2024/02/06 08:47:33;;;;;;;3.40;2.10;;;;;;;1.23;60.90;97399.72;5108072;27;20043;-69
2024/02/06 08:50:00;;;;;;;4.63;2.10;;;;;;;1.36;60.05;97396.91;5051020;27;20053;-68
2024/02/06 08:52:27;;;;;;;5.03;2.50;;;;;;;1.34;59.95;97398.84;5043816;28;20128;-66
2024/02/06 08:54:52;;;;;;;7.35;2.50;;;;;;;1.34;60.76;97382.16;5043738;28;20115;-65
2024/02/06 08:57:18;;;;;;;6.32;2.70;;;;;;;1.27;60.41;97385.31;5050367;28;20029;-65
2024/02/06 08:59:43;;;;;;;8.02;3.10;;;;;;;1.28;60.87;97399.31;5032776;28;20072;-68
2024/02/06 09:02:09;;;;;;;8.75;3.40;;;;;;;1.32;60.19;97395.47;5051376;28;20033;-62
2024/02/06 09:04:35;;;;;;;9.02;3.25;;;;;;;1.29;60.59;97401.84;5033479;28;20048;-64
2024/02/06 09:07:00;;;;;;;5.07;3.03;;;;;;;1.31;61.35;97404.34;5048189;27;20025;-60
2024/02/06 09:09:26;;;;;;;8.07;2.50;;;;;;;1.35;60.72;97389.13;5031076;28;20113;-63
2024/02/06 09:11:52;;;;;;;3.72;2.58;;;;;;;1.48;60.49;97400.34;5031112;28;20322;-60
2024/02/06 09:14:18;;;;;;;5.65;2.90;;;;;;;1.58;59.60;97406.53;5034818;28;20040;-60
2024/02/06 09:16:43;;;;;;;6.60;2.53;;;;;;;1.34;59.18;97354.03;5049754;28;20549;-61
2024/02/06 09:19:10;;;;;;;4.90;2.35;;;;;;;1.61;58.72;97396.69;5050164;28;20097;-59
2024/02/06 09:21:36;;;;;;;6.55;2.22;;;;;;;1.63;58.86;97402.66;5033295;28;20021;-61
2024/02/06 09:24:02;;;;;;;6.38;2.30;;;;;;;1.66;58.32;97399.75;5036198;27;20873;-64
2024/02/06 09:26:27;;;;;;;4.93;2.03;;;;;;;1.66;58.38;97407.66;5133011;27;20092;-63
2024/02/06 09:28:53;;;;;;;6.38;2.30;;;;;;;1.47;57.53;97358.25;5049790;27;20516;-62
2024/02/06 09:31:19;;;;;;;6.43;2.70;;;;;;;1.38;57.60;97357.22;5045167;27;20029;-62
2024/02/06 09:33:45;;;;;;;5.97;2.63;;;;;;;1.61;57.72;97412.50;5047381;28;20030;-62
2024/02/06 09:36:10;;;;;;;8.68;2.78;;;;;;;1.55;58.19;97405.91;5030447;28;20136;-63
2024/02/06 09:38:37;;;;;;;3.47;2.35;;;;;;;1.62;57.40;97417.66;5029801;28;20460;-63
2024/02/06 09:41:05;;;;;;;5.07;2.88;;;;;;;1.52;59.13;97422.84;5038586;28;20502;-61
2024/02/06 09:43:31;;;;;;;5.57;2.67;;;;;;;1.42;58.44;97422.78;5051220;27;20418;-62
2024/02/06 09:45:57;;;;;;;7.03;2.70;;;;;;;1.46;58.62;97428.63;5085576;27;20099;-62
2024/02/06 09:48:25;;;;;;;9.45;2.53;;;;;;;1.38;58.56;97438.97;5055899;27;20509;-62
2024/02/06 09:50:54;;;;;;;5.47;2.85;;;;;;;1.33;58.59;97436.72;5048403;28;20376;-66
2024/02/06 09:53:28;;;;;;;5.13;2.72;;;;;;;1.20;58.87;97421.03;5039547;28;20098;-59
2024/02/06 09:55:55;;;;;;;7.75;2.90;;;;;;;1.25;59.70;97439.97;5119033;27;20039;-60
2024/02/06 09:58:22;;;;;;;5.68;2.65;;;;;;;1.21;59.67;97433.28;5119909;27;20033;-59
2024/02/06 10:00:50;;;;;;;4.18;2.47;;;;;;;1.26;58.88;97441.63;5126213;27;20092;-60
2024/02/06 10:03:31;;;;;;;5.15;2.33;;;;;;;1.41;59.27;97439.56;5133056;27;20522;-62
2024/02/06 10:06:03;;;;;;;6.07;2.67;;;;;;;1.40;59.30;97452.84;5059898;27;20035;-61
2024/02/06 10:08:28;;;;;;;6.50;2.78;;;;;;;1.23;59.88;97433.13;5040238;28;20061;-61
2024/02/06 10:10:56;;;;;;;5.90;2.70;;;;;;;1.35;59.22;97455.03;5030349;28;20517;-63
2024/02/06 10:13:22;;;;;;;6.20;2.83;;;;;;;1.29;59.44;97454.56;5029964;28;20029;-61
2024/02/06 10:15:48;;;;;;;10.55;3.05;;;;;;;0.98;59.47;97414.03;5030198;28;20121;-61
2024/02/06 10:18:14;;;;;;;6.93;2.75;;;;;;;1.26;58.95;97452.19;5030170;28;20045;-62
2024/02/06 10:20:44;;;;;;;5.50;2.75;;;;;;;1.26;59.00;97449.53;5046708;28;20132;-62
2024/02/06 10:23:15;;;;;;;3.88;2.38;;;;;;;1.35;59.21;97462.94;5045008;28;20033;-62
2024/02/06 10:25:42;;;;;;;4.03;2.55;;;;;;;1.14;58.24;97451.38;5049454;28;20136;-62
2024/02/06 10:28:08;;;;;;;4.88;2.17;;;;;;;1.17;57.97;97470.53;5050023;28;20033;-61
2024/02/06 10:30:35;;;;;;;3.42;2.00;;;;;;;1.16;58.83;97469.69;5049173;28;20832;-61
2024/02/06 10:33:14;;;;;;;5.57;2.20;;;;;;;1.25;57.75;97466.31;5048369;28;20029;-62
2024/02/06 10:35:40;;;;;;;8.65;2.80;;;;;;;1.24;57.99;97471.72;5048476;28;20036;-61
2024/02/06 10:38:12;;;;;;;3.53;1.98;;;;;;;1.42;57.74;97475.50;5049061;28;20425;-63
2024/02/06 10:40:45;;;;;;;4.18;1.70;;;;;;;1.35;57.55;97463.78;5049362;28;20356;-62
2024/02/06 10:43:12;;;;;;;6.43;2.28;;;;;;;1.40;56.95;97473.94;5083890;27;20031;-61
2024/02/06 10:45:38;;;;;;;4.78;2.20;;;;;;;1.27;56.79;97461.78;5132725;27;20413;-62
2024/02/06 10:48:04;;;;;;;4.97;2.40;;;;;;;1.37;56.84;97477.69;5133116;27;20023;-63
2024/02/06 10:50:32;;;;;;;9.30;2.70;;;;;;;1.39;57.00;97469.63;5132369;27;20062;-62
2024/02/06 10:52:58;;;;;;;6.05;2.15;;;;;;;1.45;57.15;97487.63;5133262;27;20046;-61
2024/02/06 10:55:24;;;;;;;4.30;2.25;;;;;;;1.48;57.02;97475.97;5029769;28;20116;-62
2024/02/06 10:58:03;;;;;;;4.55;1.77;;;;;;;1.67;56.17;97475.28;5048546;28;20364;-62
2024/02/06 11:00:32;;;;;;;4.47;2.17;;;;;;;1.66;55.57;97485.03;5048922;28;20037;-64
2024/02/06 11:02:58;;;;;;;5.60;1.92;;;;;;;1.76;55.64;97479.84;5049092;28;20041;-62
2024/02/06 11:05:48;;;;;;;3.88;1.70;;;;;;;2.00;55.15;97471.66;5048651;28;20032;-63
2024/02/06 11:08:15;;;;;;;5.32;2.03;;;;;;;1.71;55.04;97429.25;5046606;28;20036;-63
2024/02/06 11:10:44;;;;;;;6.00;2.00;;;;;;;2.05;55.45;97476.56;5028181;28;20026;-64
2024/02/06 11:13:39;;;;;;;5.38;2.25;;;;;;;2.35;55.38;97487.34;5029202;28;20441;-62
2024/02/06 11:16:08;;;;;;;9.57;2.08;;;;;;;2.36;54.58;97489.81;5030522;28;20041;-63
2024/02/06 11:18:49;;;;;;;6.07;1.58;;;;;;;2.38;54.44;97487.88;5029341;28;20025;-63
2024/02/06 11:21:17;;;;;;;2.97;1.63;;;;;;;2.21;54.00;97497.25;5040021;28;20040;-62
2024/02/06 11:23:44;;;;;;;6.47;1.95;;;;;;;2.14;54.42;97502.19;5044581;28;20085;-63
2024/02/06 11:26:11;;;;;;;6.28;1.63;;;;;;;1.77;54.26;97449.84;5029341;28;20090;-61
2024/02/06 11:28:37;;;;;;;5.55;1.75;;;;;;;1.97;53.71;97494.84;5028880;28;20102;-63
2024/02/06 11:31:04;;;;;;;7.07;1.95;;;;;;;1.68;54.15;97456.72;5027565;28;20056;-62
2024/02/06 11:33:30;;;;;;;6.25;1.83;;;;;;;1.87;54.68;97507.97;5043422;28;20041;-63